Time;durP1;ratioP1;P1;durP2;ratioP2;P2;SDS_P1;SDS_P2;PMS_P1;PMS_P2;Temp;Humidity;BMP_temperature;BMP_pressure;BME280_temperature;BME280_humidity;BME280_pressure;Samples;Min_cycle;Max_cycle;Signal;HPM_P1;HPM_P2
2022/12/28 00:01:07;;;;;;;;;;;;;;;2.37;86.91;100823.59;4900726;29;19923;-86
2022/12/28 00:03:33;;;;;;;;;;;;;;;2.51;87.15;100817.81;4920763;29;19923;-87
2022/12/28 00:06:00;;;;;;;;;;;;;;;2.42;88.91;100813.78;4892202;29;19960;-87
2022/12/28 00:08:27;;;;;;;;;;;;;;;2.37;89.17;100810.50;4876939;29;20268;-86
2022/12/28 00:10:59;;;;;;;;;;;;;;;2.44;90.17;100806.69;4894076;29;19927;-87
2022/12/28 00:13:36;;;;;;;;;;;;;;;2.38;90.08;100810.41;4877986;29;19930;-87
2022/12/28 00:16:09;;;;;;;;;;;;;;;2.40;89.03;100794.66;4889272;29;19929;-86
2022/12/28 00:18:36;;;;;;;;;;;;;;;2.37;89.54;100803.47;4842128;29;19928;-86
2022/12/28 00:21:03;;;;;;;;;;;;;;;2.35;89.75;100800.06;4852873;29;19931;-87
2022/12/28 00:23:30;;;;;;;;;;;;;;;2.31;89.79;100798.47;4862032;29;20434;-87
2022/12/28 00:26:04;;;;;;;;;;;;;;;2.33;90.11;100796.63;4832395;29;19931;-87
2022/12/28 00:28:30;;;;;;;;;;;;;;;2.31;89.76;100803.69;4836700;29;19928;-87
2022/12/28 00:30:57;;;;;;;;;;;;;;;2.29;89.20;100796.81;4849016;29;19924;-87
2022/12/28 00:33:23;;;;;;;;;;;;;;;2.33;88.61;100790.56;4856462;29;19928;-87
2022/12/28 00:35:53;;;;;;;;;;;;;;;2.31;89.50;100793.22;4859624;29;20010;-87
2022/12/28 00:38:20;;;;;;;;;;;;;;;2.36;89.56;100790.41;4859149;29;19932;-87
2022/12/28 00:40:46;;;;;;;;;;;;;;;2.42;89.21;100779.72;4859936;29;19970;-87
2022/12/28 00:43:14;;;;;;;;;;;;;;;2.32;89.38;100775.75;4853990;29;20790;-87
2022/12/28 00:45:44;;;;;;;;;;;;;;;2.35;87.88;100778.25;4853930;29;19939;-85
2022/12/28 00:48:11;;;;;;;;;;;;;;;2.36;88.04;100770.31;4857483;29;19955;-87
2022/12/28 00:50:37;;;;;;;;;;;;;;;2.35;88.28;100778.25;4880185;29;20019;-87
2022/12/28 00:53:04;;;;;;;;;;;;;;;2.38;87.23;100765.00;4858132;29;19923;-86
2022/12/28 00:55:34;;;;;;;;;;;;;;;2.34;87.30;100760.78;4893352;29;20397;-87
2022/12/28 00:58:00;;;;;;;;;;;;;;;2.37;87.23;100758.94;4876873;29;19931;-87
2022/12/28 01:00:27;;;;;;;;;;;;;;;2.41;86.48;100756.19;4891421;29;19933;-87
2022/12/28 01:02:54;;;;;;;;;;;;;;;2.40;87.26;100752.72;4900648;29;20260;-87
2022/12/28 01:05:21;;;;;;;;;;;;;;;2.43;87.73;100743.88;4903366;29;20290;-87
2022/12/28 01:07:47;;;;;;;;;;;;;;;2.45;87.17;100731.56;4915564;29;19929;-87
2022/12/28 01:10:15;;;;;;;;;;;;;;;2.45;87.70;100737.66;4914371;29;19931;-86
2022/12/28 01:12:42;;;;;;;;;;;;;;;2.52;87.43;100733.00;4906344;29;19923;-87
2022/12/28 01:15:10;;;;;;;;;;;;;;;2.47;87.52;100733.19;4916086;29;20339;-87
2022/12/28 01:17:37;;;;;;;;;;;;;;;2.50;87.98;100721.75;4876325;29;19923;-87
2022/12/28 01:20:04;;;;;;;;;;;;;;;2.56;87.69;100718.84;4887134;29;19923;-87
2022/12/28 01:22:31;;;;;;;;;;;;;;;2.52;87.72;100723.38;4904311;29;19923;-87
2022/12/28 01:24:58;;;;;;;;;;;;;;;2.52;87.04;100725.13;4916095;29;19931;-87
2022/12/28 01:27:25;;;;;;;;;;;;;;;2.53;87.43;100724.22;4913902;29;19924;-87
2022/12/28 01:29:52;;;;;;;;;;;;;;;2.39;86.88;100716.91;4877971;29;20014;-87
2022/12/28 01:32:19;;;;;;;;;;;;;;;2.50;86.94;100711.25;4901032;29;20377;-87
2022/12/28 01:34:45;;;;;;;;;;;;;;;2.44;87.70;100707.09;4912715;29;19933;-87
2022/12/28 01:37:12;;;;;;;;;;;;;;;2.46;88.10;100697.41;4875035;29;19927;-87
2022/12/28 01:39:39;;;;;;;;;;;;;;;2.48;87.95;100697.34;4899028;29;19923;-87
2022/12/28 01:42:08;;;;;;;;;;;;;;;2.49;88.08;100688.56;4901042;29;19923;-87
2022/12/28 01:44:42;;;;;;;;;;;;;;;2.45;88.00;100679.13;4905088;29;20414;-87
2022/12/28 01:47:11;;;;;;;;;;;;;;;2.49;87.87;100672.81;4876296;29;19929;-87
2022/12/28 01:49:38;;;;;;;;;;;;;;;2.50;87.47;100682.41;4902307;29;19930;-87
2022/12/28 01:52:10;;;;;;;;;;;;;;;2.49;87.40;100672.81;4903638;29;19923;-87
2022/12/28 01:54:39;;;;;;;;;;;;;;;2.47;87.67;100672.03;4887661;29;20410;-87
2022/12/28 01:57:06;;;;;;;;;;;;;;;2.42;88.03;100669.63;4899215;29;19922;-87
2022/12/28 01:59:34;;;;;;;;;;;;;;;2.50;87.46;100658.81;4858313;29;19994;-86
2022/12/28 02:02:01;;;;;;;;;;;;;;;2.43;88.03;100662.59;4888992;29;19943;-87
2022/12/28 02:04:28;;;;;;;;;;;;;;;2.48;87.73;100663.28;4903947;29;19923;-87
2022/12/28 02:06:54;;;;;;;;;;;;;;;2.49;87.80;100655.31;4902600;29;19930;-86
2022/12/28 02:09:40;;;;;;;;;;;;;;;2.56;87.61;100658.56;4898645;29;19931;-84
2022/12/28 02:12:11;;;;;;;;;;;;;;;2.49;87.66;100657.94;4874629;29;22120;-87
2022/12/28 02:14:38;;;;;;;;;;;;;;;2.50;87.58;100650.97;4882793;29;19938;-87
2022/12/28 02:17:07;;;;;;;;;;;;;;;2.53;87.75;100650.81;4913302;29;19931;-86
2022/12/28 02:19:40;;;;;;;;;;;;;;;2.45;88.09;100645.06;4890780;29;20085;-86
2022/12/28 02:22:25;;;;;;;;;;;;;;;2.56;87.84;100635.78;4872790;29;19990;-87
2022/12/28 02:24:55;;;;;;;;;;;;;;;2.51;88.90;100622.03;4885383;29;19936;-87
2022/12/28 02:27:57;;;;;;;;;;;;;;;2.57;89.28;100628.78;4871836;29;20298;-87
2022/12/28 02:30:24;;;;;;;;;;;;;;;2.51;89.41;100623.81;4889783;29;25170;-86
2022/12/28 02:33:16;;;;;;;;;;;;;;;2.54;87.81;100607.94;4892490;29;19939;-87
2022/12/28 02:35:56;;;;;;;;;;;;;;;2.50;89.10;100598.53;4869873;29;19928;-86
2022/12/28 02:38:43;;;;;;;;;;;;;;;2.51;89.10;100589.72;4865243;29;19955;-87
2022/12/28 02:41:14;;;;;;;;;;;;;;;2.46;89.64;100589.06;4862598;29;19923;-86
2022/12/28 02:43:41;;;;;;;;;;;;;;;2.53;89.64;100580.03;4903141;29;19931;-87
2022/12/28 02:51:42;;;;;;;;;;;;;;;2.55;88.40;100572.97;4875272;29;19924;-87
2022/12/28 02:57:24;;;;;;;;;;;;;;;2.52;89.30;100579.19;4908736;29;20793;-87
2022/12/28 02:59:54;;;;;;;;;;;;;;;2.58;88.77;100575.44;4861520;29;20372;-88
2022/12/28 03:02:29;;;;;;;;;;;;;;;2.63;89.20;100562.13;4861349;29;20291;-87
2022/12/28 03:05:15;;;;;;;;;;;;;;;2.55;89.10;100572.97;4897230;29;19927;-87
2022/12/28 03:10:34;;;;;;;;;;;;;;;2.55;88.59;100565.94;4872152;29;20303;-86
2022/12/28 03:13:41;;;;;;;;;;;;;;;2.57;88.21;100566.72;4916978;29;19923;-87
2022/12/28 03:15:53;;;;;;;;;;;;;;;2.61;87.74;100567.44;4883992;29;19927;-87
2022/12/28 03:32:14;;;;;;;;;;;;;;;2.60;91.07;100527.25;4861582;29;19927;-87
2022/12/28 03:34:41;;;;;;;;;;;;;;;2.58;91.56;100525.63;4863338;29;20051;-87
2022/12/28 03:37:12;;;;;;;;;;;;;;;2.58;91.89;100512.53;4893832;29;19923;-87
2022/12/28 03:39:58;;;;;;;;;;;;;;;2.61;91.40;100507.13;4908157;29;19927;-87
2022/12/28 03:45:38;;;;;;;;;;;;;;;2.56;91.62;100512.56;4878874;29;19927;-87
2022/12/28 03:48:12;;;;;;;;;;;;;;;2.57;91.07;100514.31;4879339;29;19923;-87
2022/12/28 03:50:40;;;;;;;;;;;;;;;2.62;90.71;100511.47;4908498;29;19928;-88
2022/12/28 03:53:07;;;;;;;;;;;;;;;2.57;90.92;100506.44;4901905;29;20344;-87
2022/12/28 03:55:36;;;;;;;;;;;;;;;2.66;90.46;100499.91;4888551;29;19983;-87
2022/12/28 03:58:04;;;;;;;;;;;;;;;2.69;90.11;100494.53;4869800;29;19967;-87
2022/12/28 04:00:31;;;;;;;;;;;;;;;2.72;90.09;100494.41;4887324;29;19930;-87
2022/12/28 04:02:58;;;;;;;;;;;;;;;2.76;90.04;100497.72;4892226;29;19923;-87
2022/12/28 04:05:25;;;;;;;;;;;;;;;2.71;90.07;100499.72;4899690;29;19946;-87
2022/12/28 04:07:52;;;;;;;;;;;;;;;2.72;90.55;100498.78;4910556;29;19939;-87
2022/12/28 04:10:18;;;;;;;;;;;;;;;2.73;90.21;100505.75;4910673;29;20185;-87
2022/12/28 04:12:45;;;;;;;;;;;;;;;2.65;91.28;100506.09;4901210;29;19927;-88
2022/12/28 04:15:24;;;;;;;;;;;;;;;2.66;91.28;100497.28;4890804;29;20002;-88
2022/12/28 04:17:51;;;;;;;;;;;;;;;2.67;91.71;100492.88;4894328;29;19923;-88
2022/12/28 04:20:18;;;;;;;;;;;;;;;2.64;92.30;100495.66;4912507;29;20017;-85
2022/12/28 04:22:44;;;;;;;;;;;;;;;2.59;92.33;100490.63;4890687;29;19923;-88
2022/12/28 04:25:11;;;;;;;;;;;;;;;2.59;92.01;100496.69;4901845;29;19934;-88
2022/12/28 04:27:38;;;;;;;;;;;;;;;2.61;92.13;100497.50;4902679;29;19923;-84
2022/12/28 04:30:13;;;;;;;;;;;;;;;2.64;92.36;100498.28;4907716;29;19927;-87
2022/12/28 04:32:40;;;;;;;;;;;;;;;2.70;92.00;100487.53;4914077;29;19924;-86
2022/12/28 04:35:07;;;;;;;;;;;;;;;2.66;92.63;100489.44;4903149;29;20264;-87
2022/12/28 04:37:43;;;;;;;;;;;;;;;2.65;92.96;100487.72;4872346;29;20783;-87
2022/12/28 04:40:10;;;;;;;;;;;;;;;2.63;93.06;100486.94;4901492;29;20367;-85
2022/12/28 04:42:37;;;;;;;;;;;;;;;2.69;92.88;100483.19;4876333;29;19923;-87
2022/12/28 04:45:04;;;;;;;;;;;;;;;2.67;93.05;100483.28;4873551;29;20022;-87
2022/12/28 04:47:30;;;;;;;;;;;;;;;2.72;92.48;100480.41;4918015;29;20000;-87
2022/12/28 04:49:57;;;;;;;;;;;;;;;2.69;92.77;100465.69;4911256;29;20354;-87
2022/12/28 04:52:23;;;;;;;;;;;;;;;2.83;91.73;100465.06;4918957;29;19959;-87
2022/12/28 04:54:50;;;;;;;;;;;;;;;2.83;92.10;100455.41;4873023;29;19922;-87
2022/12/28 04:57:17;;;;;;;;;;;;;;;2.85;92.12;100464.97;4884120;29;19923;-87
2022/12/28 04:59:43;;;;;;;;;;;;;;;2.87;91.85;100456.09;4917933;29;19982;-88
2022/12/28 05:02:10;;;;;;;;;;;;;;;2.88;91.63;100452.59;4888054;29;20343;-88
2022/12/28 05:04:36;;;;;;;;;;;;;;;2.87;92.08;100456.09;4907671;29;19930;-88
2022/12/28 05:07:03;;;;;;;;;;;;;;;2.85;92.20;100450.09;4895520;29;19974;-86
2022/12/28 05:09:30;;;;;;;;;;;;;;;2.83;92.64;100458.03;4887272;29;19954;-88
2022/12/28 05:11:56;;;;;;;;;;;;;;;2.86;92.67;100453.56;4877979;29;19923;-88
2022/12/28 05:14:23;;;;;;;;;;;;;;;2.87;92.24;100452.63;4885524;29;19929;-89
2022/12/28 05:16:50;;;;;;;;;;;;;;;2.82;92.96;100461.59;4891429;29;19926;-88
2022/12/28 05:19:17;;;;;;;;;;;;;;;2.79;93.90;100450.38;4882229;29;19987;-88
2022/12/28 05:21:44;;;;;;;;;;;;;;;2.76;94.50;100455.78;4904855;29;19923;-87
2022/12/28 05:24:10;;;;;;;;;;;;;;;2.75;94.57;100454.09;4898597;29;19923;-88
2022/12/28 05:26:37;;;;;;;;;;;;;;;2.77;94.80;100444.34;4904290;29;19931;-87
2022/12/28 05:29:03;;;;;;;;;;;;;;;2.76;94.80;100445.28;4916507;29;19962;-88
2022/12/28 05:31:30;;;;;;;;;;;;;;;2.79;95.11;100448.59;4916607;29;19923;-88
2022/12/28 05:33:56;;;;;;;;;;;;;;;2.79;94.70;100448.59;4901761;29;19927;-87
2022/12/28 05:36:24;;;;;;;;;;;;;;;2.72;95.43;100435.84;4891005;29;20375;-87
2022/12/28 05:38:51;;;;;;;;;;;;;;;2.74;95.03;100436.63;4889741;29;20280;-88
2022/12/28 05:41:19;;;;;;;;;;;;;;;2.81;94.20;100443.28;4878851;29;21088;-84
2022/12/28 05:43:46;;;;;;;;;;;;;;;2.78;94.45;100431.16;4900875;29;19927;-88
2022/12/28 05:46:13;;;;;;;;;;;;;;;2.83;94.34;100430.97;4900492;29;19939;-89
2022/12/28 05:48:40;;;;;;;;;;;;;;;2.88;94.05;100434.22;4858948;29;19923;-87
2022/12/28 05:51:08;;;;;;;;;;;;;;;2.80;93.84;100434.59;4903653;29;19954;-88
2022/12/28 05:53:35;;;;;;;;;;;;;;;2.90;93.86;100431.50;4890217;29;19923;-88
2022/12/28 05:56:09;;;;;;;;;;;;;;;2.87;93.79;100426.41;4909633;29;19923;-88
2022/12/28 05:58:40;;;;;;;;;;;;;;;2.83;93.90;100429.19;4867675;29;19931;-88
2022/12/28 06:01:08;;;;;;;;;;;;;;;2.84;94.21;100427.41;4882839;29;19927;-87
2022/12/28 06:03:34;;;;;;;;;;;;;;;2.87;94.45;100423.78;4874624;29;19927;-88
2022/12/28 06:06:02;;;;;;;;;;;;;;;2.84;95.27;100422.16;4898297;29;19931;-88
2022/12/28 06:08:29;;;;;;;;;;;;;;;2.82;95.72;100414.38;4898366;29;20243;-88
2022/12/28 06:11:00;;;;;;;;;;;;;;;2.84;95.97;100411.66;4907289;29;19924;-87
2022/12/28 06:13:26;;;;;;;;;;;;;;;2.82;95.99;100408.25;4913441;29;19923;-88
2022/12/28 06:15:53;;;;;;;;;;;;;;;2.84;96.04;100411.66;4919539;29;19935;-84
2022/12/28 06:18:19;;;;;;;;;;;;;;;2.89;95.94;100408.84;4909131;29;19923;-88
2022/12/28 06:20:46;;;;;;;;;;;;;;;2.89;96.22;100406.22;4907692;29;19934;-88
2022/12/28 06:23:17;;;;;;;;;;;;;;;2.89;96.77;100411.47;4880684;29;19930;-88
2022/12/28 06:25:44;;;;;;;;;;;;;;;2.89;96.62;100409.69;4894811;29;20406;-87
2022/12/28 06:28:11;;;;;;;;;;;;;;;2.88;96.77;100404.53;4877795;29;19923;-87
2022/12/28 06:30:37;;;;;;;;;;;;;;;2.90;96.74;100400.91;4898144;29;19965;-88
2022/12/28 06:33:04;;;;;;;;;;;;;;;2.93;96.40;100395.50;4921043;29;19996;-87
2022/12/28 06:35:30;;;;;;;;;;;;;;;2.89;96.29;100404.44;4906076;29;19930;-87
2022/12/28 06:37:57;;;;;;;;;;;;;;;2.96;96.09;100400.59;4897043;29;20351;-87
2022/12/28 06:40:23;;;;;;;;;;;;;;;2.93;96.11;100394.66;4880631;29;19927;-87
2022/12/28 06:43:10;;;;;;;;;;;;;;;2.96;96.45;100391.88;4884235;29;20286;-84
2022/12/28 06:45:36;;;;;;;;;;;;;;;2.94;96.85;100397.19;4904179;29;19988;-84
2022/12/28 06:48:03;;;;;;;;;;;;;;;2.93;96.80;100387.63;4904603;29;20339;-84
2022/12/28 06:50:30;;;;;;;;;;;;;;;3.00;96.38;100386.44;4915234;29;19978;-85
2022/12/28 06:53:03;;;;;;;;;;;;;;;2.99;95.94;100387.34;4923856;29;19923;-84
2022/12/28 06:55:30;;;;;;;;;;;;;;;2.94;95.70;100388.47;4920493;28;19930;-84
2022/12/28 06:57:57;;;;;;;;;;;;;;;2.97;95.79;100388.31;4893800;29;19962;-84
2022/12/28 07:00:23;;;;;;;;;;;;;;;2.98;95.50;100388.25;4912250;29;19979;-84
2022/12/28 07:02:56;;;;;;;;;;;;;;;2.98;95.55;100383.03;4914234;29;19930;-85
2022/12/28 07:05:22;;;;;;;;;;;;;;;2.94;96.31;100380.63;4906014;29;20294;-85
2022/12/28 07:07:49;;;;;;;;;;;;;;;2.98;95.23;100380.41;4882313;29;20398;-84
2022/12/28 07:10:15;;;;;;;;;;;;;;;3.03;94.91;100375.78;4882086;29;19923;-84
2022/12/28 07:12:42;;;;;;;;;;;;;;;3.06;95.24;100376.56;4892634;29;19931;-84
2022/12/28 07:15:09;;;;;;;;;;;;;;;2.99;95.53;100366.34;4899065;29;20397;-84
2022/12/28 07:17:35;;;;;;;;;;;;;;;2.93;96.22;100361.41;4897562;29;19923;-84
2022/12/28 07:20:02;;;;;;;;;;;;;;;3.00;96.05;100365.44;4909236;29;20656;-84
2022/12/28 07:22:29;;;;;;;;;;;;;;;2.94;96.64;100357.84;4911600;29;20571;-85
2022/12/28 07:24:55;;;;;;;;;;;;;;;2.96;96.66;100355.16;4919867;29;19927;-84
2022/12/28 07:27:22;;;;;;;;;;;;;;;3.00;95.97;100368.06;4871023;29;20121;-84
2022/12/28 07:29:48;;;;;;;;;;;;;;;3.05;95.99;100365.19;4919217;29;19947;-84
2022/12/28 07:32:15;;;;;;;;;;;;;;;3.04;96.37;100361.72;4901657;29;19929;-84
2022/12/28 07:34:42;;;;;;;;;;;;;;;3.06;96.02;100361.66;4896321;29;19934;-85
2022/12/28 07:37:08;;;;;;;;;;;;;;;3.05;96.22;100359.94;4904510;29;20014;-84
2022/12/28 07:39:35;;;;;;;;;;;;;;;3.07;96.11;100357.25;4904569;29;20039;-85
2022/12/28 07:42:05;;;;;;;;;;;;;;;3.02;96.99;100357.47;4892590;29;20378;-84
2022/12/28 07:44:32;;;;;;;;;;;;;;;3.07;96.49;100357.25;4903871;29;20627;-84
2022/12/28 07:47:03;;;;;;;;;;;;;;;3.09;96.58;100350.16;4887816;29;20015;-84
2022/12/28 07:49:30;;;;;;;;;;;;;;;3.10;96.38;100344.81;4889743;29;19934;-84
2022/12/28 07:51:56;;;;;;;;;;;;;;;3.08;96.48;100343.19;4896446;29;19923;-84
2022/12/28 07:54:23;;;;;;;;;;;;;;;3.11;96.09;100346.53;4875778;29;19933;-85
2022/12/28 07:56:50;;;;;;;;;;;;;;;3.04;96.59;100332.84;4883344;29;19930;-83
2022/12/28 07:59:16;;;;;;;;;;;;;;;3.04;96.51;100339.88;4898398;29;19938;-84
2022/12/28 08:01:43;;;;;;;;;;;;;;;3.04;96.39;100335.47;4903858;29;20347;-84
2022/12/28 08:04:11;;;;;;;;;;;;;;;3.09;96.11;100332.63;4903223;29;19944;-83
2022/12/28 08:06:39;;;;;;;;;;;;;;;3.02;96.80;100331.25;4875830;29;19986;-83
2022/12/28 08:09:06;;;;;;;;;;;;;;;3.03;97.06;100327.72;4916444;29;19923;-83
2022/12/28 08:11:34;;;;;;;;;;;;;;;3.02;97.56;100333.84;4880441;29;20386;-84
2022/12/28 08:14:01;;;;;;;;;;;;;;;3.00;97.78;100327.84;4892173;29;19931;-84
2022/12/28 08:16:30;;;;;;;;;;;;;;;3.01;97.86;100324.31;4875485;29;23377;-83
2022/12/28 08:18:57;;;;;;;;;;;;;;;3.08;97.46;100330.06;4858727;29;20367;-83
2022/12/28 08:21:25;;;;;;;;;;;;;;;3.11;96.82;100338.66;4912600;29;19955;-82
2022/12/28 08:23:51;;;;;;;;;;;;;;;3.13;96.57;100330.69;4916227;29;20317;-83
2022/12/28 08:26:29;;;;;;;;;;;;;;;3.12;96.51;100336.88;4919061;29;20279;-84
2022/12/28 08:28:57;;;;;;;;;;;;;;;3.07;96.88;100333.63;4903535;29;20291;-84
2022/12/28 08:31:27;;;;;;;;;;;;;;;3.11;96.52;100337.81;4903934;29;19923;-85
2022/12/28 08:33:55;;;;;;;;;;;;;;;3.11;97.28;100335.19;4890985;29;19965;-84
2022/12/28 08:36:21;;;;;;;;;;;;;;;3.11;97.28;100336.03;4903424;29;19923;-85
2022/12/28 08:38:49;;;;;;;;;;;;;;;3.08;96.99;100335.31;4892981;29;19986;-84
2022/12/28 08:41:19;;;;;;;;;;;;;;;3.11;96.90;100324.69;4872854;29;20359;-84
2022/12/28 08:43:46;;;;;;;;;;;;;;;3.12;97.84;100329.00;4885964;29;19931;-84
2022/12/28 08:46:15;;;;;;;;;;;;;;;3.08;98.10;100325.72;4895044;29;19935;-84
2022/12/28 08:48:41;;;;;;;;;;;;;;;3.12;98.09;100318.53;4916930;29;19923;-85
2022/12/28 08:51:12;;;;;;;;;;;;;;;3.17;98.49;100319.13;4875041;29;20294;-84
2022/12/28 08:53:39;;;;;;;;;;;;;;;3.20;98.30;100314.56;4886259;29;19931;-85
2022/12/28 08:56:09;;;;;;;;;;;;;;;3.23;98.33;100313.56;4905351;29;19931;-83
2022/12/28 08:58:36;;;;;;;;;;;;;;;3.22;98.63;100311.88;4890223;29;19978;-83
2022/12/28 09:01:08;;;;;;;;;;;;;;;3.20;98.16;100311.09;4892019;29;19938;-83
2022/12/28 09:03:39;;;;;;;;;;;;;;;3.26;97.55;100306.41;4902457;29;19926;-83
2022/12/28 09:06:07;;;;;;;;;;;;;;;3.20;98.31;100313.72;4913710;29;19927;-84
2022/12/28 09:08:34;;;;;;;;;;;;;;;3.23;98.23;100316.19;4900238;29;19927;-83
2022/12/28 09:11:01;;;;;;;;;;;;;;;3.29;97.83;100323.78;4898375;29;19927;-83
2022/12/28 09:13:28;;;;;;;;;;;;;;;3.28;97.72;100316.81;4916035;29;20349;-83
2022/12/28 09:15:58;;;;;;;;;;;;;;;3.31;97.49;100307.94;4922805;29;20041;-83
2022/12/28 09:18:24;;;;;;;;;;;;;;;3.27;98.24;100312.50;4894223;29;19923;-83
2022/12/28 09:20:51;;;;;;;;;;;;;;;3.32;97.67;100309.66;4919161;29;19924;-83
2022/12/28 09:23:17;;;;;;;;;;;;;;;3.33;97.91;100313.97;4899792;29;19934;-82
2022/12/28 09:25:44;;;;;;;;;;;;;;;3.36;97.71;100313.78;4871387;29;19931;-83
2022/12/28 09:28:11;;;;;;;;;;;;;;;3.37;97.88;100311.09;4870026;29;20034;-85
2022/12/28 09:30:37;;;;;;;;;;;;;;;3.41;98.03;100311.78;4904767;29;19930;-85
2022/12/28 09:35:49;;;;;;;;;;;;;;;3.48;97.56;100303.50;4883076;29;19923;-84
2022/12/28 09:38:16;;;;;;;;;;;;;;;3.51;97.52;100294.66;4905098;29;19931;-84
2022/12/28 09:40:43;;;;;;;;;;;;;;;3.51;97.65;100301.66;4901009;29;20336;-84
2022/12/28 09:43:10;;;;;;;;;;;;;;;3.54;97.64;100288.41;4882482;29;20330;-89
2022/12/28 09:45:37;;;;;;;;;;;;;;;3.57;97.42;100291.69;4873205;29;20072;-87
2022/12/28 09:48:07;;;;;;;;;;;;;;;3.68;99.58;100291.97;4891019;29;19934;-89
2022/12/28 09:50:34;;;;;;;;;;;;;;;3.71;97.82;100285.72;4898798;29;19996;-87
2022/12/28 09:53:04;;;;;;;;;;;;;;;3.73;97.45;100290.91;4896324;29;19927;-85
2022/12/28 09:55:30;;;;;;;;;;;;;;;3.74;97.48;100285.56;4913535;29;19931;-86
2022/12/28 09:57:58;;;;;;;;;;;;;;;3.77;97.30;100287.19;4891469;29;20227;-87
2022/12/28 10:00:36;;;;;;;;;;;;;;;3.79;97.14;100280.06;4893528;29;19927;-87
2022/12/28 10:03:04;;;;;;;;;;;;;;;3.81;97.17;100279.03;4882291;29;20387;-86
2022/12/28 10:05:31;;;;;;;;;;;;;;;3.83;97.29;100268.47;4867607;29;19923;-85
2022/12/28 10:08:01;;;;;;;;;;;;;;;3.85;97.37;100271.88;4883417;29;20327;-88
2022/12/28 10:10:27;;;;;;;;;;;;;;;3.88;97.20;100279.56;4895275;29;19927;-88
2022/12/28 10:12:54;;;;;;;;;;;;;;;3.89;97.07;100269.00;4902826;28;20383;-88
2022/12/28 10:15:21;;;;;;;;;;;;;;;3.92;97.15;100273.25;4894235;29;19990;-87
2022/12/28 10:17:48;;;;;;;;;;;;;;;3.95;97.40;100273.06;4895656;29;19983;-88
2022/12/28 10:20:19;;;;;;;;;;;;;;;3.98;97.89;100261.53;4872257;29;19937;-86
2022/12/28 10:22:51;;;;;;;;;;;;;;;4.00;97.45;100255.28;4909616;29;20271;-87
2022/12/28 10:25:19;;;;;;;;;;;;;;;4.06;98.04;100259.34;4876320;29;20018;-86
2022/12/28 10:27:45;;;;;;;;;;;;;;;4.05;99.05;100247.97;4899213;29;19931;-88
2022/12/28 10:30:16;;;;;;;;;;;;;;;4.08;98.27;100244.34;4884594;29;20433;-90
2022/12/28 10:32:53;;;;;;;;;;;;;;;4.08;98.81;100245.19;4875474;29;20025;-88
2022/12/28 10:35:29;;;;;;;;;;;;;;;4.10;99.19;100243.31;4851356;29;19987;-88
2022/12/28 10:38:00;;;;;;;;;;;;;;;4.14;98.78;100244.84;4905121;29;20367;-89
2022/12/28 10:40:28;;;;;;;;;;;;;;;4.18;100.00;100242.06;4863634;29;19927;-86
2022/12/28 10:42:55;;;;;;;;;;;;;;;4.21;99.29;100241.88;4903604;29;19933;-84
2022/12/28 10:45:24;;;;;;;;;;;;;;;4.19;99.40;100231.44;4899445;29;20034;-84
2022/12/28 10:47:51;;;;;;;;;;;;;;;4.23;100.00;100234.75;4879239;29;20081;-84
2022/12/28 10:50:36;;;;;;;;;;;;;;;4.25;99.14;100228.50;4881238;29;20009;-84
2022/12/28 10:53:03;;;;;;;;;;;;;;;4.29;99.05;100231.78;4892712;29;19923;-84
2022/12/28 10:55:31;;;;;;;;;;;;;;;4.30;99.04;100222.94;4865136;29;19943;-85
2022/12/28 10:58:15;;;;;;;;;;;;;;;4.33;98.71;100214.91;4891095;29;19923;-83
2022/12/28 11:01:12;;;;;;;;;;;;;;;4.37;98.72;100200.63;4879935;29;19975;-82
2022/12/28 11:03:43;;;;;;;;;;;;;;;4.42;98.40;100200.38;4884027;29;19983;-83
2022/12/28 11:06:17;;;;;;;;;;;;;;;4.43;98.47;100197.69;4894097;29;20276;-83
2022/12/28 11:09:01;;;;;;;;;;;;;;;4.44;98.20;100188.84;4870970;29;19927;-83
2022/12/28 11:11:27;;;;;;;;;;;;;;;4.44;98.24;100194.09;4889638;29;19930;-84
2022/12/28 11:13:58;;;;;;;;;;;;;;;4.45;98.07;100182.66;4897932;29;19927;-83
2022/12/28 11:16:25;;;;;;;;;;;;;;;4.47;98.38;100186.03;4863718;29;20283;-88
2022/12/28 11:18:52;;;;;;;;;;;;;;;4.52;98.25;100176.09;4871071;29;19934;-84
2022/12/28 11:21:19;;;;;;;;;;;;;;;4.58;98.78;100172.28;4909320;29;20396;-85
2022/12/28 11:23:49;;;;;;;;;;;;;;;4.62;98.89;100165.06;4910636;29;20009;-86
2022/12/28 11:26:16;;;;;;;;;;;;;;;4.65;98.69;100164.88;4880614;29;19931;-84
2022/12/28 11:28:44;;;;;;;;;;;;;;;4.64;98.78;100164.03;4863902;29;19931;-85
2022/12/28 11:31:16;;;;;;;;;;;;;;;4.67;98.15;100155.09;4895462;29;19923;-88
2022/12/28 11:33:43;;;;;;;;;;;;;;;4.68;98.90;100149.75;4865092;29;19945;-88
2022/12/28 11:36:20;;;;;;;;;;;;;;;4.73;99.00;100147.72;4894239;29;20276;-85
2022/12/28 11:38:48;;;;;;;;;;;;;;;4.76;99.34;100144.06;4881814;29;20393;-85
2022/12/28 11:41:23;;;;;;;;;;;;;;;4.80;98.91;100140.28;4880724;29;19948;-85
2022/12/28 11:44:01;;;;;;;;;;;;;;;4.84;99.73;100136.53;4894353;29;19923;-83
2022/12/28 11:46:28;;;;;;;;;;;;;;;4.88;99.52;100135.41;4888432;29;20334;-87
2022/12/28 11:48:58;;;;;;;;;;;;;;;4.91;99.36;100121.22;4893706;29;19931;-85
2022/12/28 11:51:26;;;;;;;;;;;;;;;4.97;99.31;100124.34;4883909;29;19931;-84
2022/12/28 11:53:57;;;;;;;;;;;;;;;5.01;98.90;100119.72;4896834;29;19928;-84
2022/12/28 11:56:25;;;;;;;;;;;;;;;5.05;99.39;100113.34;4843006;29;19927;-84
2022/12/28 11:58:57;;;;;;;;;;;;;;;5.11;99.70;100120.00;4869997;29;19927;-83
2022/12/28 12:01:35;;;;;;;;;;;;;;;5.13;100.00;100111.06;4881992;29;19927;-83
2022/12/28 12:04:02;;;;;;;;;;;;;;;5.16;99.57;100110.88;4896968;29;20332;-83
2022/12/28 12:06:41;;;;;;;;;;;;;;;5.18;99.70;100103.75;4901503;29;19966;-83
2022/12/28 12:09:20;;;;;;;;;;;;;;;5.19;98.99;100099.31;4895758;29;19974;-83
2022/12/28 12:11:47;;;;;;;;;;;;;;;5.22;98.71;100105.25;4895235;29;19927;-86
2022/12/28 12:14:20;;;;;;;;;;;;;;;5.24;98.77;100086.75;4879660;29;19945;-84
2022/12/28 12:16:48;;;;;;;;;;;;;;;5.27;98.26;100090.97;4911664;29;20632;-83
2022/12/28 12:19:22;;;;;;;;;;;;;;;5.26;97.54;100079.56;4888066;29;20041;-83
2022/12/28 12:21:54;;;;;;;;;;;;;;;5.27;97.37;100083.06;4880970;29;20389;-83
2022/12/28 12:24:28;;;;;;;;;;;;;;;5.27;97.54;100075.19;4887117;29;19927;-83
2022/12/28 12:26:57;;;;;;;;;;;;;;;5.28;97.39;100068.94;4862511;29;19935;-83
2022/12/28 12:29:47;;;;;;;;;;;;;;;5.30;98.34;100067.91;4878490;29;20046;-83
2022/12/28 12:32:14;;;;;;;;;;;;;;;5.31;97.81;100060.84;4790693;29;20401;-83
2022/12/28 12:34:45;;;;;;;;;;;;;;;5.31;97.77;100064.31;4870847;29;20247;-87
2022/12/28 12:37:30;;;;;;;;;;;;;;;5.32;97.31;100058.13;4884740;29;19923;-87
2022/12/28 12:40:08;;;;;;;;;;;;;;;5.34;97.64;100052.75;4838145;29;19923;-86
2022/12/28 12:42:41;;;;;;;;;;;;;;;5.36;97.65;100049.09;4834405;29;19924;-85
2022/12/28 12:45:26;;;;;;;;;;;;;;;5.38;97.82;100044.56;4822387;29;20808;-84
2022/12/28 12:48:15;;;;;;;;;;;;;;;5.39;97.86;100041.00;4846451;29;19943;-85
2022/12/28 12:50:47;;;;;;;;;;;;;;;5.40;97.57;100028.69;4785550;29;19928;-84
2022/12/28 12:53:25;;;;;;;;;;;;;;;5.41;97.58;100033.84;4839340;29;20419;-88
2022/12/28 12:55:55;;;;;;;;;;;;;;;5.46;97.44;100027.44;4837853;29;19927;-86
2022/12/28 12:58:25;;;;;;;;;;;;;;;5.47;97.70;100023.84;4846294;29;19956;-84
2022/12/28 13:01:10;;;;;;;;;;;;;;;5.50;97.92;100021.03;4846176;29;19939;-83
2022/12/28 13:03:40;;;;;;;;;;;;;;;5.51;98.24;100020.94;4824675;29;19932;-84
2022/12/28 13:06:06;;;;;;;;;;;;;;;5.52;97.54;100017.38;4840802;29;19927;-84
2022/12/28 13:08:38;;;;;;;;;;;;;;;5.55;98.30;100018.97;4846489;29;20027;-83
2022/12/28 13:11:08;;;;;;;;;;;;;;;5.56;97.92;100005.66;4846507;29;19931;-84
2022/12/28 13:13:35;;;;;;;;;;;;;;;5.55;98.38;100004.00;4853397;29;19927;-83
2022/12/28 13:16:03;;;;;;;;;;;;;;;5.55;98.42;100003.16;4874173;29;20374;-83
2022/12/28 13:18:30;;;;;;;;;;;;;;;5.54;98.46;100004.91;4894068;29;19962;-83
2022/12/28 13:21:16;;;;;;;;;;;;;;;5.52;98.30;99996.28;4907913;29;20282;-83
2022/12/28 13:23:43;;;;;;;;;;;;;;;5.52;98.34;99991.03;4892933;29;20564;-83
2022/12/28 13:26:10;;;;;;;;;;;;;;;5.53;98.92;99991.88;4904985;29;20761;-88
2022/12/28 13:28:37;;;;;;;;;;;;;;;5.53;98.48;99984.81;4874489;29;20035;-87
2022/12/28 13:31:13;;;;;;;;;;;;;;;5.55;98.36;99985.56;4902770;29;19930;-87